Woodville, Idaho
Current Conditions -  °F | °C
As of 2:53 AM on Thursday 29 Jan 2015 (Local Time) from KIDA Reporting Station
Haze Haze  
Wind Chill: 34°   Ceiling: 2300
Heat Index: 34°   Visibility: 3mi
Dew Point: 33°   Wind: 3mph
Humidity: 96%   Direction: 10°N
Pressure: 30.45"   Gusts: NA
Location:  43.2015°N, 111.522°W
Report Text: KIDA 290953Z AUTO 01003KT 3SM BR BKN023 OVC028 01/01 A3045 RMK AO2 SLP331 T00110006
Loading
Personal Weather Stations






























Interactive Weather Map New forecast layout! Learn more

10-Day Weather Forecast

Advertisements
Track Severe Weather on mobile